sensor_id;sensor_type;location;lat;lon;timestamp;P1;durP1;ratioP1;P2;durP2;ratioP2
14923;SDS011;7554;43.600;1.480;2023-12-29T00:00:27;20.27;;;14.67;;
14923;SDS011;7554;43.600;1.480;2023-12-29T00:02:55;20.03;;;14.37;;
14923;SDS011;7554;43.600;1.480;2023-12-29T00:05:22;17.87;;;14.10;;
14923;SDS011;7554;43.600;1.480;2023-12-29T00:07:51;21.60;;;14.30;;
14923;SDS011;7554;43.600;1.480;2023-12-29T00:10:19;27.23;;;14.40;;
14923;SDS011;7554;43.600;1.480;2023-12-29T00:12:47;22.33;;;14.47;;
14923;SDS011;7554;43.600;1.480;2023-12-29T00:15:16;22.47;;;15.17;;
14923;SDS011;7554;43.600;1.480;2023-12-29T00:17:45;19.13;;;14.77;;
14923;SDS011;7554;43.600;1.480;2023-12-29T00:20:13;21.40;;;14.53;;
14923;SDS011;7554;43.600;1.480;2023-12-29T00:22:40;23.23;;;14.83;;
14923;SDS011;7554;43.600;1.480;2023-12-29T00:25:10;22.43;;;15.07;;
14923;SDS011;7554;43.600;1.480;2023-12-29T00:27:37;21.50;;;15.37;;
14923;SDS011;7554;43.600;1.480;2023-12-29T00:30:05;20.47;;;14.77;;
14923;SDS011;7554;43.600;1.480;2023-12-29T00:32:34;20.03;;;15.37;;
14923;SDS011;7554;43.600;1.480;2023-12-29T00:35:01;26.07;;;14.97;;
14923;SDS011;7554;43.600;1.480;2023-12-29T00:37:29;22.70;;;15.10;;
14923;SDS011;7554;43.600;1.480;2023-12-29T00:39:57;23.80;;;15.67;;
14923;SDS011;7554;43.600;1.480;2023-12-29T00:42:26;23.57;;;14.50;;
14923;SDS011;7554;43.600;1.480;2023-12-29T00:44:53;21.63;;;15.47;;
14923;SDS011;7554;43.600;1.480;2023-12-29T00:47:20;23.73;;;15.50;;
14923;SDS011;7554;43.600;1.480;2023-12-29T00:49:48;20.90;;;15.80;;
14923;SDS011;7554;43.600;1.480;2023-12-29T00:52:16;27.10;;;15.97;;
14923;SDS011;7554;43.600;1.480;2023-12-29T00:54:43;25.10;;;16.97;;
14923;SDS011;7554;43.600;1.480;2023-12-29T00:57:11;24.13;;;18.00;;
14923;SDS011;7554;43.600;1.480;2023-12-29T00:59:40;26.10;;;20.13;;
14923;SDS011;7554;43.600;1.480;2023-12-29T01:02:09;28.70;;;19.57;;
14923;SDS011;7554;43.600;1.480;2023-12-29T01:04:37;26.83;;;18.83;;
14923;SDS011;7554;43.600;1.480;2023-12-29T01:07:05;28.17;;;19.50;;
14923;SDS011;7554;43.600;1.480;2023-12-29T01:09:36;25.13;;;18.90;;
14923;SDS011;7554;43.600;1.480;2023-12-29T01:12:05;28.23;;;21.37;;
14923;SDS011;7554;43.600;1.480;2023-12-29T01:14:33;28.27;;;20.53;;
14923;SDS011;7554;43.600;1.480;2023-12-29T01:17:02;26.47;;;19.90;;
14923;SDS011;7554;43.600;1.480;2023-12-29T01:19:30;30.03;;;20.87;;
14923;SDS011;7554;43.600;1.480;2023-12-29T01:21:57;34.27;;;22.57;;
14923;SDS011;7554;43.600;1.480;2023-12-29T01:24:25;26.40;;;19.83;;
14923;SDS011;7554;43.600;1.480;2023-12-29T01:26:52;26.10;;;18.03;;
14923;SDS011;7554;43.600;1.480;2023-12-29T01:29:20;26.33;;;17.80;;
14923;SDS011;7554;43.600;1.480;2023-12-29T01:31:47;26.03;;;15.40;;
14923;SDS011;7554;43.600;1.480;2023-12-29T01:34:16;23.53;;;16.17;;
14923;SDS011;7554;43.600;1.480;2023-12-29T01:36:44;24.73;;;16.37;;
14923;SDS011;7554;43.600;1.480;2023-12-29T01:39:12;22.60;;;16.13;;
14923;SDS011;7554;43.600;1.480;2023-12-29T01:41:39;21.93;;;16.50;;
14923;SDS011;7554;43.600;1.480;2023-12-29T01:44:20;22.83;;;15.57;;
14923;SDS011;7554;43.600;1.480;2023-12-29T01:46:49;26.87;;;16.77;;
14923;SDS011;7554;43.600;1.480;2023-12-29T01:49:20;23.20;;;16.63;;
14923;SDS011;7554;43.600;1.480;2023-12-29T01:51:49;20.73;;;16.20;;
14923;SDS011;7554;43.600;1.480;2023-12-29T01:54:18;27.40;;;17.43;;
14923;SDS011;7554;43.600;1.480;2023-12-29T01:56:46;26.73;;;20.33;;
14923;SDS011;7554;43.600;1.480;2023-12-29T01:59:16;25.20;;;17.13;;
14923;SDS011;7554;43.600;1.480;2023-12-29T02:01:44;27.37;;;18.00;;
14923;SDS011;7554;43.600;1.480;2023-12-29T02:04:12;26.57;;;18.73;;
14923;SDS011;7554;43.600;1.480;2023-12-29T02:06:42;27.40;;;20.23;;
14923;SDS011;7554;43.600;1.480;2023-12-29T02:09:10;28.47;;;20.13;;
14923;SDS011;7554;43.600;1.480;2023-12-29T02:11:38;25.97;;;19.37;;
14923;SDS011;7554;43.600;1.480;2023-12-29T02:14:06;31.53;;;20.83;;
14923;SDS011;7554;43.600;1.480;2023-12-29T02:16:35;28.63;;;20.60;;
14923;SDS011;7554;43.600;1.480;2023-12-29T02:19:14;24.33;;;18.33;;
14923;SDS011;7554;43.600;1.480;2023-12-29T02:21:53;26.03;;;18.40;;
14923;SDS011;7554;43.600;1.480;2023-12-29T02:24:20;25.07;;;17.87;;
14923;SDS011;7554;43.600;1.480;2023-12-29T02:26:50;28.80;;;18.47;;
14923;SDS011;7554;43.600;1.480;2023-12-29T02:29:27;23.70;;;15.07;;
14923;SDS011;7554;43.600;1.480;2023-12-29T02:31:59;25.13;;;17.37;;
14923;SDS011;7554;43.600;1.480;2023-12-29T02:34:29;24.33;;;16.83;;
14923;SDS011;7554;43.600;1.480;2023-12-29T02:36:59;22.80;;;17.00;;
14923;SDS011;7554;43.600;1.480;2023-12-29T02:39:28;22.13;;;16.83;;
14923;SDS011;7554;43.600;1.480;2023-12-29T02:41:57;24.33;;;16.23;;
14923;SDS011;7554;43.600;1.480;2023-12-29T02:44:24;23.20;;;16.77;;
14923;SDS011;7554;43.600;1.480;2023-12-29T02:46:52;24.60;;;17.03;;
14923;SDS011;7554;43.600;1.480;2023-12-29T02:49:19;25.00;;;17.00;;
14923;SDS011;7554;43.600;1.480;2023-12-29T02:51:47;24.67;;;17.27;;
14923;SDS011;7554;43.600;1.480;2023-12-29T02:54:15;22.77;;;17.10;;
14923;SDS011;7554;43.600;1.480;2023-12-29T02:56:42;27.57;;;16.23;;
14923;SDS011;7554;43.600;1.480;2023-12-29T02:59:12;24.43;;;16.20;;
14923;SDS011;7554;43.600;1.480;2023-12-29T03:01:39;24.50;;;15.53;;
14923;SDS011;7554;43.600;1.480;2023-12-29T03:04:06;25.50;;;15.83;;
14923;SDS011;7554;43.600;1.480;2023-12-29T03:06:34;20.57;;;15.60;;
14923;SDS011;7554;43.600;1.480;2023-12-29T03:09:01;23.70;;;15.63;;
14923;SDS011;7554;43.600;1.480;2023-12-29T03:11:29;23.07;;;16.50;;
14923;SDS011;7554;43.600;1.480;2023-12-29T03:13:57;23.07;;;15.27;;
14923;SDS011;7554;43.600;1.480;2023-12-29T03:16:26;24.13;;;15.47;;
14923;SDS011;7554;43.600;1.480;2023-12-29T03:18:53;22.20;;;15.90;;
14923;SDS011;7554;43.600;1.480;2023-12-29T03:21:21;23.77;;;17.10;;
14923;SDS011;7554;43.600;1.480;2023-12-29T03:23:49;23.80;;;16.50;;
14923;SDS011;7554;43.600;1.480;2023-12-29T03:26:16;20.43;;;16.10;;
14923;SDS011;7554;43.600;1.480;2023-12-29T03:28:44;23.67;;;16.10;;
14923;SDS011;7554;43.600;1.480;2023-12-29T03:31:11;24.17;;;16.53;;
14923;SDS011;7554;43.600;1.480;2023-12-29T03:33:40;21.87;;;16.23;;
14923;SDS011;7554;43.600;1.480;2023-12-29T03:36:08;26.43;;;17.40;;
14923;SDS011;7554;43.600;1.480;2023-12-29T03:38:36;20.93;;;16.13;;
14923;SDS011;7554;43.600;1.480;2023-12-29T03:41:04;24.20;;;17.50;;
14923;SDS011;7554;43.600;1.480;2023-12-29T03:43:31;24.13;;;16.50;;
14923;SDS011;7554;43.600;1.480;2023-12-29T03:45:59;29.17;;;16.43;;
14923;SDS011;7554;43.600;1.480;2023-12-29T03:48:26;20.43;;;16.20;;
14923;SDS011;7554;43.600;1.480;2023-12-29T03:50:55;20.93;;;15.60;;
14923;SDS011;7554;43.600;1.480;2023-12-29T03:53:23;22.30;;;15.87;;
14923;SDS011;7554;43.600;1.480;2023-12-29T03:55:50;26.30;;;16.77;;
14923;SDS011;7554;43.600;1.480;2023-12-29T03:58:18;23.13;;;17.30;;
14923;SDS011;7554;43.600;1.480;2023-12-29T04:00:45;26.37;;;17.73;;
14923;SDS011;7554;43.600;1.480;2023-12-29T04:03:12;24.03;;;16.70;;
14923;SDS011;7554;43.600;1.480;2023-12-29T04:05:40;26.30;;;17.97;;
14923;SDS011;7554;43.600;1.480;2023-12-29T04:08:09;29.10;;;17.60;;
14923;SDS011;7554;43.600;1.480;2023-12-29T04:10:37;23.47;;;17.83;;
14923;SDS011;7554;43.600;1.480;2023-12-29T04:13:05;31.17;;;17.40;;
14923;SDS011;7554;43.600;1.480;2023-12-29T04:15:32;24.77;;;17.57;;
14923;SDS011;7554;43.600;1.480;2023-12-29T04:17:59;26.60;;;18.07;;
14923;SDS011;7554;43.600;1.480;2023-12-29T04:20:27;25.73;;;18.03;;
14923;SDS011;7554;43.600;1.480;2023-12-29T04:22:55;24.37;;;18.67;;
14923;SDS011;7554;43.600;1.480;2023-12-29T04:25:24;26.90;;;18.27;;
14923;SDS011;7554;43.600;1.480;2023-12-29T04:27:51;27.73;;;18.23;;
14923;SDS011;7554;43.600;1.480;2023-12-29T04:30:19;25.00;;;18.43;;
14923;SDS011;7554;43.600;1.480;2023-12-29T04:32:46;31.93;;;19.37;;
14923;SDS011;7554;43.600;1.480;2023-12-29T04:35:14;27.83;;;18.57;;
14923;SDS011;7554;43.600;1.480;2023-12-29T04:37:43;27.73;;;18.27;;
14923;SDS011;7554;43.600;1.480;2023-12-29T04:40:11;27.53;;;18.73;;
14923;SDS011;7554;43.600;1.480;2023-12-29T04:42:40;21.70;;;17.17;;
14923;SDS011;7554;43.600;1.480;2023-12-29T04:45:08;21.87;;;17.03;;
14923;SDS011;7554;43.600;1.480;2023-12-29T04:47:36;28.47;;;17.47;;
14923;SDS011;7554;43.600;1.480;2023-12-29T04:50:04;25.47;;;17.37;;
14923;SDS011;7554;43.600;1.480;2023-12-29T04:52:33;24.37;;;17.40;;
14923;SDS011;7554;43.600;1.480;2023-12-29T04:55:00;24.63;;;17.17;;
14923;SDS011;7554;43.600;1.480;2023-12-29T04:57:28;21.90;;;15.77;;
14923;SDS011;7554;43.600;1.480;2023-12-29T04:59:57;23.60;;;17.00;;
14923;SDS011;7554;43.600;1.480;2023-12-29T05:02:24;27.33;;;17.00;;
14923;SDS011;7554;43.600;1.480;2023-12-29T05:04:52;21.53;;;16.50;;
14923;SDS011;7554;43.600;1.480;2023-12-29T05:07:19;25.43;;;16.73;;
14923;SDS011;7554;43.600;1.480;2023-12-29T05:09:47;19.50;;;16.47;;
14923;SDS011;7554;43.600;1.480;2023-12-29T05:12:16;22.70;;;17.53;;
14923;SDS011;7554;43.600;1.480;2023-12-29T05:14:44;23.03;;;17.17;;
14923;SDS011;7554;43.600;1.480;2023-12-29T05:17:13;27.17;;;16.77;;
14923;SDS011;7554;43.600;1.480;2023-12-29T05:19:42;24.23;;;16.13;;
14923;SDS011;7554;43.600;1.480;2023-12-29T05:22:10;24.13;;;17.27;;
14923;SDS011;7554;43.600;1.480;2023-12-29T05:24:42;26.83;;;16.80;;
14923;SDS011;7554;43.600;1.480;2023-12-29T05:27:10;22.07;;;15.67;;
14923;SDS011;7554;43.600;1.480;2023-12-29T05:29:38;23.20;;;17.30;;
14923;SDS011;7554;43.600;1.480;2023-12-29T05:32:07;22.50;;;16.47;;
14923;SDS011;7554;43.600;1.480;2023-12-29T05:34:36;25.20;;;16.60;;
14923;SDS011;7554;43.600;1.480;2023-12-29T05:37:04;25.03;;;17.73;;
14923;SDS011;7554;43.600;1.480;2023-12-29T05:39:32;27.10;;;17.60;;
14923;SDS011;7554;43.600;1.480;2023-12-29T05:42:00;25.30;;;16.20;;
14923;SDS011;7554;43.600;1.480;2023-12-29T05:44:28;24.40;;;18.17;;
14923;SDS011;7554;43.600;1.480;2023-12-29T05:46:55;25.83;;;17.03;;
14923;SDS011;7554;43.600;1.480;2023-12-29T05:49:24;21.10;;;16.47;;
14923;SDS011;7554;43.600;1.480;2023-12-29T05:51:54;22.50;;;17.43;;
14923;SDS011;7554;43.600;1.480;2023-12-29T05:54:21;22.83;;;18.17;;
14923;SDS011;7554;43.600;1.480;2023-12-29T05:56:50;25.90;;;18.13;;
14923;SDS011;7554;43.600;1.480;2023-12-29T05:59:17;22.23;;;18.00;;
14923;SDS011;7554;43.600;1.480;2023-12-29T06:01:45;22.17;;;17.17;;
14923;SDS011;7554;43.600;1.480;2023-12-29T06:04:13;26.17;;;18.20;;
14923;SDS011;7554;43.600;1.480;2023-12-29T06:06:41;22.87;;;17.40;;
14923;SDS011;7554;43.600;1.480;2023-12-29T06:09:11;28.80;;;18.00;;
14923;SDS011;7554;43.600;1.480;2023-12-29T06:11:38;27.60;;;18.47;;
14923;SDS011;7554;43.600;1.480;2023-12-29T06:14:06;28.37;;;19.30;;
14923;SDS011;7554;43.600;1.480;2023-12-29T06:16:34;29.10;;;19.07;;
14923;SDS011;7554;43.600;1.480;2023-12-29T06:19:01;26.97;;;18.53;;
14923;SDS011;7554;43.600;1.480;2023-12-29T06:21:29;25.40;;;17.93;;
14923;SDS011;7554;43.600;1.480;2023-12-29T06:23:56;23.97;;;17.60;;
14923;SDS011;7554;43.600;1.480;2023-12-29T06:26:25;26.43;;;19.90;;
14923;SDS011;7554;43.600;1.480;2023-12-29T06:28:53;59.37;;;23.13;;
14923;SDS011;7554;43.600;1.480;2023-12-29T06:31:21;28.57;;;20.70;;
14923;SDS011;7554;43.600;1.480;2023-12-29T06:33:48;29.33;;;19.47;;
14923;SDS011;7554;43.600;1.480;2023-12-29T06:36:16;27.90;;;19.43;;
14923;SDS011;7554;43.600;1.480;2023-12-29T06:38:43;26.93;;;18.93;;
14923;SDS011;7554;43.600;1.480;2023-12-29T06:41:13;24.03;;;19.67;;
14923;SDS011;7554;43.600;1.480;2023-12-29T06:43:42;26.87;;;20.23;;
14923;SDS011;7554;43.600;1.480;2023-12-29T06:46:10;29.13;;;20.00;;
14923;SDS011;7554;43.600;1.480;2023-12-29T06:48:39;28.80;;;19.60;;
14923;SDS011;7554;43.600;1.480;2023-12-29T06:51:07;28.80;;;19.13;;
14923;SDS011;7554;43.600;1.480;2023-12-29T06:53:35;23.43;;;19.40;;
14923;SDS011;7554;43.600;1.480;2023-12-29T06:56:03;27.13;;;19.13;;
14923;SDS011;7554;43.600;1.480;2023-12-29T06:58:30;24.33;;;18.17;;
14923;SDS011;7554;43.600;1.480;2023-12-29T07:00:59;25.40;;;17.97;;
14923;SDS011;7554;43.600;1.480;2023-12-29T07:03:27;23.90;;;18.47;;
14923;SDS011;7554;43.600;1.480;2023-12-29T07:05:54;26.27;;;20.03;;
14923;SDS011;7554;43.600;1.480;2023-12-29T07:08:22;26.97;;;20.20;;
14923;SDS011;7554;43.600;1.480;2023-12-29T07:10:49;27.30;;;20.07;;
14923;SDS011;7554;43.600;1.480;2023-12-29T07:13:17;26.30;;;20.00;;
14923;SDS011;7554;43.600;1.480;2023-12-29T07:15:45;24.17;;;19.50;;
14923;SDS011;7554;43.600;1.480;2023-12-29T07:18:14;26.57;;;20.03;;
14923;SDS011;7554;43.600;1.480;2023-12-29T07:20:42;25.73;;;18.93;;
14923;SDS011;7554;43.600;1.480;2023-12-29T07:23:09;23.67;;;18.50;;
14923;SDS011;7554;43.600;1.480;2023-12-29T07:25:37;27.37;;;18.97;;
14923;SDS011;7554;43.600;1.480;2023-12-29T07:28:05;22.80;;;18.63;;
14923;SDS011;7554;43.600;1.480;2023-12-29T07:30:32;30.37;;;19.77;;
14923;SDS011;7554;43.600;1.480;2023-12-29T07:33:00;27.70;;;18.33;;
14923;SDS011;7554;43.600;1.480;2023-12-29T07:35:29;24.77;;;18.40;;
14923;SDS011;7554;43.600;1.480;2023-12-29T07:37:57;25.37;;;18.70;;
14923;SDS011;7554;43.600;1.480;2023-12-29T07:40:24;22.17;;;18.83;;
14923;SDS011;7554;43.600;1.480;2023-12-29T07:42:52;25.20;;;18.50;;
14923;SDS011;7554;43.600;1.480;2023-12-29T07:45:19;23.83;;;18.33;;
14923;SDS011;7554;43.600;1.480;2023-12-29T07:47:47;21.60;;;17.13;;
14923;SDS011;7554;43.600;1.480;2023-12-29T07:50:14;26.40;;;19.80;;
14923;SDS011;7554;43.600;1.480;2023-12-29T07:52:43;30.03;;;22.70;;
14923;SDS011;7554;43.600;1.480;2023-12-29T07:55:11;29.20;;;22.83;;
14923;SDS011;7554;43.600;1.480;2023-12-29T07:57:38;28.07;;;20.67;;
14923;SDS011;7554;43.600;1.480;2023-12-29T08:00:06;23.90;;;18.00;;
14923;SDS011;7554;43.600;1.480;2023-12-29T08:02:35;29.03;;;19.07;;
14923;SDS011;7554;43.600;1.480;2023-12-29T08:05:01;24.00;;;17.43;;
14923;SDS011;7554;43.600;1.480;2023-12-29T08:07:29;23.10;;;17.53;;
14923;SDS011;7554;43.600;1.480;2023-12-29T08:09:58;22.13;;;17.80;;
14923;SDS011;7554;43.600;1.480;2023-12-29T08:12:26;22.93;;;17.70;;
14923;SDS011;7554;43.600;1.480;2023-12-29T08:14:54;24.47;;;18.27;;
14923;SDS011;7554;43.600;1.480;2023-12-29T08:17:21;34.63;;;26.40;;
14923;SDS011;7554;43.600;1.480;2023-12-29T08:19:49;30.83;;;24.93;;
14923;SDS011;7554;43.600;1.480;2023-12-29T08:22:16;32.03;;;22.87;;
14923;SDS011;7554;43.600;1.480;2023-12-29T08:24:45;27.73;;;22.03;;
14923;SDS011;7554;43.600;1.480;2023-12-29T08:27:18;32.10;;;21.17;;
14923;SDS011;7554;43.600;1.480;2023-12-29T08:29:50;25.83;;;19.20;;
14923;SDS011;7554;43.600;1.480;2023-12-29T08:32:19;24.00;;;18.00;;
14923;SDS011;7554;43.600;1.480;2023-12-29T08:34:47;23.77;;;17.93;;
14923;SDS011;7554;43.600;1.480;2023-12-29T08:37:15;22.10;;;17.03;;
14923;SDS011;7554;43.600;1.480;2023-12-29T08:39:45;25.27;;;18.13;;
14923;SDS011;7554;43.600;1.480;2023-12-29T08:42:14;22.70;;;18.50;;
14923;SDS011;7554;43.600;1.480;2023-12-29T08:44:42;20.97;;;17.53;;
14923;SDS011;7554;43.600;1.480;2023-12-29T08:47:10;27.47;;;18.30;;
14923;SDS011;7554;43.600;1.480;2023-12-29T08:49:38;23.47;;;17.67;;
14923;SDS011;7554;43.600;1.480;2023-12-29T08:52:06;19.97;;;17.10;;
14923;SDS011;7554;43.600;1.480;2023-12-29T08:54:35;22.07;;;18.07;;
14923;SDS011;7554;43.600;1.480;2023-12-29T08:57:03;22.83;;;18.73;;
14923;SDS011;7554;43.600;1.480;2023-12-29T08:59:33;30.63;;;21.60;;
14923;SDS011;7554;43.600;1.480;2023-12-29T09:02:00;21.73;;;18.27;;
14923;SDS011;7554;43.600;1.480;2023-12-29T09:04:28;22.27;;;18.67;;
14923;SDS011;7554;43.600;1.480;2023-12-29T09:06:55;24.70;;;19.10;;
14923;SDS011;7554;43.600;1.480;2023-12-29T09:09:23;23.43;;;17.67;;
14923;SDS011;7554;43.600;1.480;2023-12-29T09:11:50;23.63;;;18.17;;
14923;SDS011;7554;43.600;1.480;2023-12-29T09:14:18;21.90;;;16.60;;
14923;SDS011;7554;43.600;1.480;2023-12-29T09:16:47;20.90;;;16.27;;
14923;SDS011;7554;43.600;1.480;2023-12-29T09:19:14;22.17;;;16.73;;
14923;SDS011;7554;43.600;1.480;2023-12-29T09:21:42;21.00;;;15.90;;
14923;SDS011;7554;43.600;1.480;2023-12-29T09:24:10;19.37;;;16.17;;
14923;SDS011;7554;43.600;1.480;2023-12-29T09:26:37;19.13;;;16.83;;
14923;SDS011;7554;43.600;1.480;2023-12-29T09:29:05;19.90;;;16.60;;
14923;SDS011;7554;43.600;1.480;2023-12-29T09:31:33;26.10;;;17.00;;
14923;SDS011;7554;43.600;1.480;2023-12-29T09:34:02;20.50;;;16.73;;
14923;SDS011;7554;43.600;1.480;2023-12-29T09:36:30;21.37;;;16.57;;
14923;SDS011;7554;43.600;1.480;2023-12-29T09:38:57;20.73;;;16.97;;
14923;SDS011;7554;43.600;1.480;2023-12-29T09:41:25;22.17;;;17.03;;
14923;SDS011;7554;43.600;1.480;2023-12-29T09:43:54;20.40;;;16.23;;
14923;SDS011;7554;43.600;1.480;2023-12-29T09:46:24;19.00;;;16.37;;
14923;SDS011;7554;43.600;1.480;2023-12-29T09:48:54;24.40;;;17.27;;
14923;SDS011;7554;43.600;1.480;2023-12-29T09:51:30;20.30;;;15.97;;
14923;SDS011;7554;43.600;1.480;2023-12-29T09:53:57;23.00;;;17.80;;
14923;SDS011;7554;43.600;1.480;2023-12-29T09:56:26;28.37;;;18.50;;
14923;SDS011;7554;43.600;1.480;2023-12-29T09:58:54;23.80;;;18.47;;
14923;SDS011;7554;43.600;1.480;2023-12-29T10:01:23;23.33;;;17.70;;
14923;SDS011;7554;43.600;1.480;2023-12-29T10:03:52;22.07;;;16.90;;
14923;SDS011;7554;43.600;1.480;2023-12-29T10:06:20;22.37;;;18.23;;
14923;SDS011;7554;43.600;1.480;2023-12-29T10:08:52;23.83;;;17.57;;
14923;SDS011;7554;43.600;1.480;2023-12-29T10:11:21;25.43;;;17.43;;
14923;SDS011;7554;43.600;1.480;2023-12-29T10:13:49;21.60;;;17.13;;
14923;SDS011;7554;43.600;1.480;2023-12-29T10:16:21;19.23;;;16.70;;
14923;SDS011;7554;43.600;1.480;2023-12-29T10:18:57;24.37;;;16.33;;
14923;SDS011;7554;43.600;1.480;2023-12-29T10:21:33;20.37;;;17.07;;
14923;SDS011;7554;43.600;1.480;2023-12-29T10:24:09;19.53;;;15.87;;
14923;SDS011;7554;43.600;1.480;2023-12-29T10:26:40;22.42;;;17.20;;
14923;SDS011;7554;43.600;1.480;2023-12-29T10:29:09;17.03;;;15.23;;
14923;SDS011;7554;43.600;1.480;2023-12-29T10:31:37;18.80;;;15.63;;
14923;SDS011;7554;43.600;1.480;2023-12-29T10:34:17;19.93;;;15.73;;
14923;SDS011;7554;43.600;1.480;2023-12-29T10:36:48;21.20;;;15.47;;
14923;SDS011;7554;43.600;1.480;2023-12-29T10:39:17;19.17;;;15.30;;
14923;SDS011;7554;43.600;1.480;2023-12-29T10:41:45;21.53;;;16.00;;
14923;SDS011;7554;43.600;1.480;2023-12-29T10:44:12;22.13;;;16.87;;
14923;SDS011;7554;43.600;1.480;2023-12-29T10:46:40;28.17;;;16.87;;
14923;SDS011;7554;43.600;1.480;2023-12-29T10:49:07;24.63;;;17.27;;
14923;SDS011;7554;43.600;1.480;2023-12-29T10:51:35;20.30;;;16.60;;
14923;SDS011;7554;43.600;1.480;2023-12-29T10:54:03;30.73;;;17.67;;
14923;SDS011;7554;43.600;1.480;2023-12-29T10:56:33;21.27;;;17.13;;
14923;SDS011;7554;43.600;1.480;2023-12-29T10:59:01;21.40;;;18.53;;
14923;SDS011;7554;43.600;1.480;2023-12-29T11:01:30;22.53;;;18.30;;
14923;SDS011;7554;43.600;1.480;2023-12-29T11:03:59;28.87;;;19.17;;
14923;SDS011;7554;43.600;1.480;2023-12-29T11:06:28;23.27;;;18.23;;
14923;SDS011;7554;43.600;1.480;2023-12-29T11:08:56;23.97;;;18.77;;
14923;SDS011;7554;43.600;1.480;2023-12-29T11:11:24;35.43;;;28.63;;
14923;SDS011;7554;43.600;1.480;2023-12-29T11:13:54;33.27;;;24.10;;
14923;SDS011;7554;43.600;1.480;2023-12-29T11:16:22;33.07;;;23.73;;
14923;SDS011;7554;43.600;1.480;2023-12-29T11:18:51;27.67;;;21.20;;
14923;SDS011;7554;43.600;1.480;2023-12-29T11:21:20;22.67;;;18.93;;
14923;SDS011;7554;43.600;1.480;2023-12-29T11:23:49;25.77;;;21.13;;
14923;SDS011;7554;43.600;1.480;2023-12-29T11:26:17;30.33;;;20.93;;
14923;SDS011;7554;43.600;1.480;2023-12-29T11:28:46;24.33;;;19.43;;
14923;SDS011;7554;43.600;1.480;2023-12-29T11:31:16;22.43;;;18.30;;
14923;SDS011;7554;43.600;1.480;2023-12-29T11:33:45;25.77;;;18.00;;
14923;SDS011;7554;43.600;1.480;2023-12-29T11:36:18;20.57;;;18.37;;
14923;SDS011;7554;43.600;1.480;2023-12-29T11:38:53;21.00;;;17.77;;
14923;SDS011;7554;43.600;1.480;2023-12-29T11:41:27;18.17;;;16.13;;
14923;SDS011;7554;43.600;1.480;2023-12-29T11:44:03;20.17;;;15.17;;
14923;SDS011;7554;43.600;1.480;2023-12-29T11:46:39;16.27;;;13.40;;
14923;SDS011;7554;43.600;1.480;2023-12-29T11:49:09;19.50;;;12.73;;
14923;SDS011;7554;43.600;1.480;2023-12-29T11:51:39;20.27;;;11.90;;
14923;SDS011;7554;43.600;1.480;2023-12-29T11:54:08;15.73;;;10.37;;
14923;SDS011;7554;43.600;1.480;2023-12-29T11:56:38;13.90;;;10.50;;
14923;SDS011;7554;43.600;1.480;2023-12-29T11:59:14;13.30;;;10.20;;
14923;SDS011;7554;43.600;1.480;2023-12-29T12:01:43;15.40;;;10.27;;
14923;SDS011;7554;43.600;1.480;2023-12-29T12:07:06;11.37;;;9.43;;
14923;SDS011;7554;43.600;1.480;2023-12-29T12:09:35;11.60;;;9.43;;
14923;SDS011;7554;43.600;1.480;2023-12-29T12:12:03;11.60;;;8.80;;
14923;SDS011;7554;43.600;1.480;2023-12-29T12:14:47;15.43;;;9.97;;
14923;SDS011;7554;43.600;1.480;2023-12-29T12:17:28;11.13;;;8.47;;
14923;SDS011;7554;43.600;1.480;2023-12-29T12:20:03;11.90;;;8.97;;
14923;SDS011;7554;43.600;1.480;2023-12-29T12:22:33;11.17;;;9.10;;
14923;SDS011;7554;43.600;1.480;2023-12-29T12:25:03;10.70;;;8.23;;
14923;SDS011;7554;43.600;1.480;2023-12-29T12:27:31;11.80;;;8.10;;
14923;SDS011;7554;43.600;1.480;2023-12-29T12:30:00;9.37;;;7.43;;
14923;SDS011;7554;43.600;1.480;2023-12-29T12:32:29;10.00;;;8.20;;
14923;SDS011;7554;43.600;1.480;2023-12-29T12:34:57;11.80;;;8.93;;
14923;SDS011;7554;43.600;1.480;2023-12-29T12:37:25;9.57;;;7.33;;
14923;SDS011;7554;43.600;1.480;2023-12-29T12:39:55;9.53;;;7.70;;
14923;SDS011;7554;43.600;1.480;2023-12-29T12:42:23;14.30;;;7.63;;
14923;SDS011;7554;43.600;1.480;2023-12-29T12:44:54;9.97;;;7.63;;
14923;SDS011;7554;43.600;1.480;2023-12-29T12:47:25;10.07;;;7.80;;
14923;SDS011;7554;43.600;1.480;2023-12-29T12:50:01;11.53;;;7.67;;
14923;SDS011;7554;43.600;1.480;2023-12-29T12:52:32;14.60;;;8.63;;
14923;SDS011;7554;43.600;1.480;2023-12-29T12:55:01;11.37;;;7.30;;
14923;SDS011;7554;43.600;1.480;2023-12-29T12:57:29;9.77;;;5.70;;
14923;SDS011;7554;43.600;1.480;2023-12-29T12:59:58;12.00;;;6.60;;
14923;SDS011;7554;43.600;1.480;2023-12-29T13:02:28;11.33;;;6.40;;
14923;SDS011;7554;43.600;1.480;2023-12-29T13:04:57;9.30;;;7.00;;
14923;SDS011;7554;43.600;1.480;2023-12-29T13:07:32;9.00;;;6.23;;
14923;SDS011;7554;43.600;1.480;2023-12-29T13:10:01;18.20;;;7.27;;
14923;SDS011;7554;43.600;1.480;2023-12-29T13:12:30;8.33;;;6.40;;
14923;SDS011;7554;43.600;1.480;2023-12-29T13:15:04;9.63;;;7.10;;
14923;SDS011;7554;43.600;1.480;2023-12-29T13:17:33;7.80;;;6.57;;
14923;SDS011;7554;43.600;1.480;2023-12-29T13:20:01;9.53;;;7.40;;
14923;SDS011;7554;43.600;1.480;2023-12-29T13:22:29;10.17;;;6.50;;
14923;SDS011;7554;43.600;1.480;2023-12-29T13:25:00;10.77;;;6.57;;
14923;SDS011;7554;43.600;1.480;2023-12-29T13:27:32;7.90;;;6.47;;
14923;SDS011;7554;43.600;1.480;2023-12-29T13:30:00;8.80;;;6.50;;
14923;SDS011;7554;43.600;1.480;2023-12-29T13:32:28;8.87;;;6.70;;
14923;SDS011;7554;43.600;1.480;2023-12-29T13:35:02;10.70;;;7.27;;
14923;SDS011;7554;43.600;1.480;2023-12-29T13:37:35;11.67;;;7.43;;
14923;SDS011;7554;43.600;1.480;2023-12-29T13:40:10;9.77;;;6.77;;
14923;SDS011;7554;43.600;1.480;2023-12-29T13:42:41;7.57;;;6.60;;
14923;SDS011;7554;43.600;1.480;2023-12-29T13:45:12;8.47;;;6.70;;
14923;SDS011;7554;43.600;1.480;2023-12-29T13:47:41;13.87;;;9.80;;
14923;SDS011;7554;43.600;1.480;2023-12-29T13:50:09;8.30;;;7.37;;
14923;SDS011;7554;43.600;1.480;2023-12-29T13:52:39;11.03;;;6.83;;
14923;SDS011;7554;43.600;1.480;2023-12-29T13:55:07;9.73;;;6.60;;
14923;SDS011;7554;43.600;1.480;2023-12-29T13:57:35;9.63;;;6.80;;
14923;SDS011;7554;43.600;1.480;2023-12-29T14:00:16;11.03;;;6.83;;
14923;SDS011;7554;43.600;1.480;2023-12-29T14:02:48;8.37;;;6.87;;
14923;SDS011;7554;43.600;1.480;2023-12-29T14:05:27;9.20;;;6.10;;
14923;SDS011;7554;43.600;1.480;2023-12-29T14:08:04;6.90;;;6.13;;
14923;SDS011;7554;43.600;1.480;2023-12-29T14:10:36;10.30;;;6.13;;
14923;SDS011;7554;43.600;1.480;2023-12-29T14:13:05;8.97;;;6.57;;
14923;SDS011;7554;43.600;1.480;2023-12-29T14:15:34;6.97;;;6.27;;
14923;SDS011;7554;43.600;1.480;2023-12-29T14:18:04;7.23;;;6.43;;
14923;SDS011;7554;43.600;1.480;2023-12-29T14:20:42;8.50;;;6.20;;
14923;SDS011;7554;43.600;1.480;2023-12-29T14:23:11;8.23;;;6.17;;
14923;SDS011;7554;43.600;1.480;2023-12-29T14:25:40;8.77;;;6.70;;
14923;SDS011;7554;43.600;1.480;2023-12-29T14:28:13;10.93;;;5.60;;
14923;SDS011;7554;43.600;1.480;2023-12-29T14:30:42;8.63;;;5.53;;
14923;SDS011;7554;43.600;1.480;2023-12-29T14:33:09;7.17;;;5.17;;
14923;SDS011;7554;43.600;1.480;2023-12-29T14:35:37;6.63;;;5.90;;
14923;SDS011;7554;43.600;1.480;2023-12-29T14:38:05;7.30;;;5.83;;
14923;SDS011;7554;43.600;1.480;2023-12-29T14:40:34;8.97;;;5.80;;
14923;SDS011;7554;43.600;1.480;2023-12-29T14:43:02;7.97;;;5.80;;
14923;SDS011;7554;43.600;1.480;2023-12-29T14:45:29;6.00;;;5.37;;
14923;SDS011;7554;43.600;1.480;2023-12-29T14:47:57;8.67;;;6.00;;
14923;SDS011;7554;43.600;1.480;2023-12-29T14:50:26;8.83;;;6.37;;